createdAt,value
2023-10-21T00:00:19.761Z,4.50
2023-10-21T00:03:57.841Z,5.00
2023-10-21T00:07:25.474Z,4.30
2023-10-21T00:15:35.422Z,5.20
2023-10-21T00:18:24.930Z,5.80
2023-10-21T00:22:14.584Z,5.20
2023-10-21T00:25:52.693Z,4.90
2023-10-21T00:29:42.041Z,4.40
2023-10-21T00:33:21.667Z,5.90
2023-10-21T00:36:38.898Z,6.50
2023-10-21T00:40:15.930Z,7.50
2023-10-21T00:44:05.614Z,6.60
2023-10-21T00:47:31.156Z,7.20
2023-10-21T00:51:23.023Z,7.10
2023-10-21T00:54:55.316Z,5.40
2023-10-21T00:58:33.874Z,5.70
2023-10-21T01:01:58.696Z,5.60
2023-10-21T01:10:11.454Z,3.30
2023-10-21T01:13:42.462Z,4.50
2023-10-21T01:17:11.332Z,3.30
2023-10-21T01:21:03.270Z,4.10
2023-10-21T01:24:38.287Z,3.90
2023-10-21T01:28:13.523Z,4.40
2023-10-21T01:31:45.769Z,4.40
2023-10-21T01:35:08.732Z,5.10
2023-10-21T01:38:36.231Z,4.50
2023-10-21T01:42:00.515Z,4.40
2023-10-21T01:45:31.282Z,4.50
2023-10-21T01:48:55.270Z,4.80
2023-10-21T01:52:24.340Z,4.10
2023-10-21T01:55:54.414Z,4.80
2023-10-21T01:59:34.303Z,4.60
2023-10-21T02:02:52.206Z,4.20
2023-10-21T02:06:06.368Z,4.40
2023-10-21T02:09:31.831Z,3.90
2023-10-21T02:13:06.029Z,4.50
2023-10-21T02:16:50.267Z,2.70
2023-10-21T02:20:19.468Z,3.90
2023-10-21T02:24:03.249Z,4.40
2023-10-21T02:28:21.714Z,4.30
2023-10-21T02:31:55.406Z,3.70
2023-10-21T02:35:44.031Z,4.00
2023-10-21T02:39:17.398Z,4.60
2023-10-21T02:42:56.010Z,4.30
2023-10-21T02:46:50.046Z,4.10
2023-10-21T02:50:53.466Z,3.90
2023-10-21T02:58:58.192Z,4.30
2023-10-21T03:02:47.482Z,4.40
2023-10-21T03:11:03.787Z,5.10
2023-10-21T03:14:31.209Z,5.10
2023-10-21T03:18:20.230Z,5.10
2023-10-21T03:21:58.435Z,5.30
2023-10-21T03:25:46.992Z,5.60
2023-10-21T03:29:14.416Z,4.90
2023-10-21T03:33:04.020Z,4.50
2023-10-21T03:36:35.901Z,4.80
2023-10-21T03:40:16.937Z,3.60
2023-10-21T03:43:57.494Z,3.30
2023-10-21T03:47:45.903Z,4.70
2023-10-21T03:51:11.881Z,4.00
2023-10-21T03:54:43.965Z,4.70
2023-10-21T03:58:14.688Z,3.50
2023-10-21T04:01:38.637Z,4.40
2023-10-21T04:05:16.552Z,5.00
2023-10-21T04:08:53.429Z,4.10
2023-10-21T04:12:26.586Z,3.40
2023-10-21T04:15:59.057Z,5.60
2023-10-21T04:19:37.189Z,4.20
2023-10-21T04:23:07.129Z,4.80
2023-10-21T04:26:49.801Z,4.70
2023-10-21T04:30:26.345Z,4.70
2023-10-21T04:33:47.083Z,5.00
2023-10-21T04:37:07.525Z,5.80
2023-10-21T04:40:55.639Z,5.70
2023-10-21T04:44:06.607Z,4.40
2023-10-21T04:47:23.376Z,4.40
2023-10-21T04:58:32.458Z,4.30
2023-10-21T05:02:10.918Z,4.30
2023-10-21T05:05:53.523Z,4.10
2023-10-21T05:09:07.023Z,4.90
2023-10-21T05:12:34.436Z,5.10
2023-10-21T05:19:33.329Z,5.30
2023-10-21T05:23:08.354Z,3.80
2023-10-21T05:26:54.343Z,4.00
2023-10-21T05:30:32.540Z,3.70
2023-10-21T05:34:12.578Z,4.00
2023-10-21T05:37:42.266Z,4.50
2023-10-21T05:41:06.524Z,5.10
2023-10-21T05:44:47.674Z,5.00
2023-10-21T05:47:47.381Z,6.20
2023-10-21T05:50:42.660Z,5.10
2023-10-21T05:54:12.936Z,5.90
2023-10-21T05:57:44.305Z,5.10
2023-10-21T06:00:57.069Z,5.30
2023-10-21T06:04:09.711Z,5.90
2023-10-21T06:07:35.303Z,6.60
2023-10-21T06:10:47.622Z,9.30
2023-10-21T06:13:44.805Z,8.70
2023-10-21T06:16:46.191Z,6.80
2023-10-21T06:19:43.939Z,7.70
2023-10-21T06:23:03.915Z,6.30
2023-10-21T06:26:15.805Z,6.40
2023-10-21T06:28:53.487Z,6.40
2023-10-21T06:31:33.163Z,6.90
2023-10-21T06:34:51.653Z,6.50
2023-10-21T06:37:52.549Z,7.10
2023-10-21T06:41:22.009Z,6.20
2023-10-21T06:44:38.240Z,5.40
2023-10-21T06:48:11.972Z,6.20
2023-10-21T06:51:32.239Z,5.30
2023-10-21T06:54:30.172Z,6.80
2023-10-21T06:57:45.284Z,5.40
2023-10-21T07:01:03.262Z,6.40
2023-10-21T07:04:29.680Z,7.30
2023-10-21T07:07:34.264Z,6.80
2023-10-21T07:10:58.967Z,6.20
2023-10-21T07:14:13.569Z,6.80
2023-10-21T07:17:56.808Z,5.20
2023-10-21T07:21:51.130Z,5.90
2023-10-21T07:25:38.078Z,6.10
2023-10-21T07:28:44.061Z,5.60
2023-10-21T07:32:40.586Z,6.10
2023-10-21T07:35:35.202Z,5.70
2023-10-21T07:38:20.379Z,5.60
2023-10-21T07:41:49.490Z,6.40
2023-10-21T07:45:11.478Z,6.60
2023-10-21T07:48:24.094Z,6.30
2023-10-21T07:51:41.939Z,6.30
2023-10-21T07:55:13.643Z,7.00
2023-10-21T07:58:31.286Z,6.90
2023-10-21T08:01:29.275Z,6.90
2023-10-21T08:05:04.271Z,7.50
2023-10-21T08:07:53.292Z,7.40
2023-10-21T08:11:02.118Z,7.60
2023-10-21T08:14:49.114Z,6.90
2023-10-21T08:19:05.001Z,7.60
2023-10-21T08:32:03.653Z,8.20
2023-10-21T08:43:02.107Z,6.90
2023-10-21T08:46:57.671Z,6.90
2023-10-21T08:50:39.617Z,5.30
2023-10-21T08:54:10.537Z,5.80
2023-10-21T08:58:00.827Z,7.00
2023-10-21T09:01:09.982Z,6.40
2023-10-21T09:04:06.960Z,6.30
2023-10-21T09:12:15.140Z,5.10
2023-10-21T09:27:32.283Z,4.30
2023-10-21T09:43:05.277Z,1.70
2023-10-21T09:46:50.875Z,3.40
2023-10-21T09:50:48.744Z,2.30
2023-10-21T09:59:05.116Z,2.60
2023-10-21T10:26:32.408Z,3.30
2023-10-21T10:39:23.010Z,4.30
2023-10-21T10:47:11.803Z,3.60
2023-10-21T10:50:24.609Z,3.50
2023-10-21T10:54:04.191Z,3.20
2023-10-21T10:57:20.561Z,2.70
2023-10-21T11:00:31.219Z,3.00
2023-10-21T11:03:54.154Z,3.00
2023-10-21T11:07:06.730Z,3.20
2023-10-21T11:09:52.387Z,3.20
2023-10-21T11:12:54.097Z,2.90
2023-10-21T11:15:27.998Z,2.70
2023-10-21T11:18:20.912Z,2.70
2023-10-21T11:21:01.671Z,3.20
2023-10-21T11:24:12.382Z,3.00
2023-10-21T11:27:01.411Z,2.90
2023-10-21T11:29:43.271Z,2.90
2023-10-21T11:32:50.177Z,3.10
2023-10-21T11:35:44.891Z,3.50
2023-10-21T11:38:53.513Z,3.80
2023-10-21T11:41:25.027Z,3.10
2023-10-21T11:43:57.561Z,3.00
2023-10-21T11:46:32.660Z,3.60
2023-10-21T11:49:15.096Z,3.00
2023-10-21T11:52:02.418Z,2.90
2023-10-21T11:55:10.616Z,2.40
2023-10-21T11:57:51.889Z,2.90
2023-10-21T12:01:41.709Z,2.70
2023-10-21T12:04:52.432Z,3.20
2023-10-21T12:07:48.603Z,2.40
2023-10-21T12:10:17.543Z,3.00
2023-10-21T12:13:07.778Z,3.00
2023-10-21T12:16:23.929Z,3.10
2023-10-21T12:19:18.827Z,2.70
2023-10-21T12:22:36.166Z,3.40
2023-10-21T12:25:12.723Z,3.90
2023-10-21T12:28:18.178Z,2.90
2023-10-21T12:31:51.732Z,3.00
2023-10-21T12:34:52.166Z,2.60
2023-10-21T12:38:11.510Z,3.30
2023-10-21T12:41:19.655Z,2.40
2023-10-21T12:48:44.489Z,2.50
2023-10-21T12:51:32.945Z,3.70
2023-10-21T12:54:14.078Z,3.80
2023-10-21T12:56:51.677Z,3.60
2023-10-21T12:59:26.197Z,3.80
2023-10-21T13:02:48.707Z,3.20
2023-10-21T13:06:19.597Z,4.80
2023-10-21T13:09:13.454Z,3.40
2023-10-21T13:11:42.279Z,3.30
2023-10-21T13:14:11.047Z,2.90
2023-10-21T13:16:46.771Z,3.20
2023-10-21T13:19:47.508Z,2.40
2023-10-21T13:27:16.277Z,2.50
2023-10-21T13:29:56.853Z,3.70
2023-10-21T13:32:49.377Z,2.40
2023-10-21T13:35:35.975Z,2.50
2023-10-21T13:38:22.846Z,2.70
2023-10-21T13:41:01.019Z,3.10
2023-10-21T13:43:45.830Z,4.30
2023-10-21T13:46:29.079Z,3.70
2023-10-21T13:50:09.377Z,3.10
2023-10-21T13:52:41.623Z,2.80
2023-10-21T13:55:23.928Z,3.30
2023-10-21T13:58:06.734Z,3.90
2023-10-21T14:00:44.060Z,3.90
2023-10-21T14:03:25.734Z,4.40
2023-10-21T14:06:12.951Z,3.70
2023-10-21T14:08:41.871Z,3.70
2023-10-21T14:11:51.268Z,3.70
2023-10-21T14:15:11.745Z,4.30
2023-10-21T14:17:49.955Z,5.20
2023-10-21T14:20:22.454Z,4.40
2023-10-21T14:22:53.887Z,3.20
2023-10-21T14:25:54.864Z,4.20
2023-10-21T14:31:46.985Z,4.20
2023-10-21T14:34:21.138Z,3.80
2023-10-21T14:37:21.806Z,4.50
2023-10-21T14:45:04.317Z,4.50
2023-10-21T14:47:45.745Z,5.00
2023-10-21T14:50:30.934Z,4.40
2023-10-21T14:53:14.254Z,4.50
2023-10-21T14:56:46.704Z,5.20
2023-10-21T14:59:32.944Z,3.30
2023-10-21T15:02:28.498Z,4.60
2023-10-21T15:05:19.211Z,4.90
2023-10-21T15:08:05.937Z,6.10
2023-10-21T15:12:19.860Z,4.90
2023-10-21T15:16:15.995Z,6.50
2023-10-21T15:20:24.968Z,5.90
2023-10-21T15:23:51.584Z,5.80
2023-10-21T15:27:42.086Z,7.90
2023-10-21T16:03:24.023Z,8.50
2023-10-21T16:33:30.787Z,9.80
2023-10-21T16:47:51.962Z,11.90
2023-10-21T17:06:01.432Z,9.70
2023-10-21T17:09:14.911Z,9.40
2023-10-21T17:48:52.314Z,7.70
2023-10-21T17:55:56.419Z,7.80
2023-10-21T17:59:32.191Z,7.70
2023-10-21T18:03:14.913Z,6.70
2023-10-21T18:06:55.396Z,6.20
2023-10-21T18:10:16.656Z,7.90
2023-10-21T18:17:41.286Z,8.00
2023-10-21T18:20:48.586Z,7.40
2023-10-21T18:24:21.480Z,7.50
2023-10-21T18:28:14.636Z,6.70
2023-10-21T18:31:40.476Z,5.20
2023-10-21T18:34:43.160Z,6.30
2023-10-21T18:38:33.069Z,5.90
2023-10-21T18:41:52.591Z,5.60
2023-10-21T18:44:48.821Z,6.40
2023-10-21T18:48:24.507Z,7.00
2023-10-21T18:52:17.228Z,6.70
2023-10-21T19:00:07.669Z,7.00
2023-10-21T19:10:47.765Z,5.50
2023-10-21T19:14:22.931Z,6.30
2023-10-21T19:18:12.111Z,6.30
2023-10-21T19:21:58.434Z,6.90
2023-10-21T19:29:24.199Z,6.00
2023-10-21T19:40:11.756Z,5.10
2023-10-21T19:43:50.155Z,4.70
2023-10-21T19:47:33.283Z,6.50
2023-10-21T19:51:15.018Z,5.30
2023-10-21T19:54:50.328Z,5.90
2023-10-21T19:58:20.888Z,5.30
2023-10-21T20:02:00.154Z,5.90
2023-10-21T20:05:18.772Z,4.90
2023-10-21T20:08:43.871Z,5.30
2023-10-21T20:12:48.655Z,5.80
2023-10-21T20:16:24.250Z,6.00
2023-10-21T20:20:06.288Z,5.30
2023-10-21T20:23:55.850Z,5.90
2023-10-21T20:27:42.552Z,6.20
2023-10-21T20:30:50.559Z,5.50
2023-10-21T20:34:08.206Z,5.50
2023-10-21T20:37:32.599Z,4.90
2023-10-21T20:41:12.545Z,5.40
2023-10-21T20:44:31.859Z,5.30
2023-10-21T20:47:48.453Z,5.40
2023-10-21T20:50:59.407Z,5.10
2023-10-21T20:53:55.161Z,4.30
2023-10-21T20:57:34.918Z,4.70
2023-10-21T21:00:43.675Z,4.90
2023-10-21T21:06:41.912Z,5.10
2023-10-21T21:09:29.215Z,4.60
2023-10-21T21:12:26.766Z,4.70
2023-10-21T21:15:13.766Z,5.00
2023-10-21T21:18:13.234Z,5.40
2023-10-21T21:21:08.852Z,5.20
2023-10-21T21:24:15.613Z,5.30
2023-10-21T21:26:59.252Z,5.40
2023-10-21T21:29:59.021Z,3.80
2023-10-21T21:32:33.541Z,5.60
2023-10-21T21:35:48.949Z,4.90
2023-10-21T21:38:38.349Z,5.90
2023-10-21T21:41:38.077Z,7.00
2023-10-21T21:44:29.697Z,5.60
2023-10-21T21:47:17.037Z,5.50
2023-10-21T21:50:26.065Z,4.90
2023-10-21T21:53:36.734Z,5.60
2023-10-21T21:57:07.579Z,6.60
2023-10-21T22:00:45.828Z,4.90
2023-10-21T22:04:25.657Z,6.50
2023-10-21T22:07:50.443Z,4.90
2023-10-21T22:10:53.497Z,5.30
2023-10-21T22:13:58.508Z,5.00
2023-10-21T22:17:25.615Z,4.00
2023-10-21T22:20:59.432Z,5.30
2023-10-21T22:24:10.456Z,5.40
2023-10-21T22:27:03.357Z,4.90
2023-10-21T22:30:05.507Z,5.20
2023-10-21T22:33:14.491Z,5.30
2023-10-21T22:36:33.852Z,5.00
2023-10-21T22:39:36.267Z,4.50
2023-10-21T22:43:19.669Z,3.80
2023-10-21T22:47:07.661Z,4.60
2023-10-21T22:50:38.549Z,5.80
2023-10-21T22:54:14.353Z,5.10
2023-10-21T22:57:52.854Z,5.30
2023-10-21T23:01:32.738Z,5.80
2023-10-21T23:05:17.233Z,4.10
2023-10-21T23:09:08.425Z,5.10
2023-10-21T23:12:22.906Z,4.70
2023-10-21T23:15:25.415Z,4.90
2023-10-21T23:18:42.892Z,4.70
2023-10-21T23:21:47.352Z,5.20
2023-10-21T23:24:54.661Z,4.20
2023-10-21T23:28:04.695Z,5.30
2023-10-21T23:31:17.317Z,4.40
2023-10-21T23:34:37.563Z,4.90
2023-10-21T23:37:32.501Z,4.70
2023-10-21T23:40:38.373Z,4.60
2023-10-21T23:43:40.154Z,5.20
2023-10-21T23:46:55.975Z,4.80
2023-10-21T23:49:54.977Z,4.90
2023-10-21T23:52:43.177Z,4.90
2023-10-21T23:56:25.007Z,5.40
